Funkley, Minnesota
Current Conditions -  °F | °C
As of 12:34 PM on Thursday 30 Oct 2014 (Local Time) from KVWU Reporting Station
Overcast Overcast  
Wind Chill: 29°   Ceiling: 2600
Heat Index: 37°   Visibility: 10mi
Dew Point: 34°   Wind: 14mph
Humidity: 87%   Direction: 310°NW
Pressure: 30.18"   Gusts: 21mph
Location:  47.7306°N, 94.3762°W
Report Text: KVWU 301734Z AUTO 31012G18KT 10SM SCT018 OVC026 03/01 A3018 RMK AO2
Loading
Personal Weather Stations






























Interactive Weather Map
Tropical Storm Tracking
New forecast layout! Learn more

10-Day Weather Forecast

Advertisements
Track Severe Weather on mobile